createdAt,value
2022-10-25T00:01:22.762Z,12.70
2022-10-25T00:03:49.831Z,12.70
2022-10-25T00:06:17.190Z,12.70
2022-10-25T00:08:44.537Z,12.60
2022-10-25T00:11:25.332Z,12.60
2022-10-25T00:13:56.754Z,12.60
2022-10-25T00:16:33.119Z,12.60
2022-10-25T00:19:02.376Z,12.60
2022-10-25T00:21:29.936Z,12.60
2022-10-25T00:23:57.253Z,12.60
2022-10-25T00:26:24.219Z,12.60
2022-10-25T00:28:55.091Z,12.60
2022-10-25T00:31:26.543Z,12.60
2022-10-25T00:33:54.119Z,12.60
2022-10-25T00:36:24.150Z,12.70
2022-10-25T00:38:51.429Z,12.60
2022-10-25T00:41:21.359Z,12.60
2022-10-25T00:43:50.941Z,12.60
2022-10-25T00:46:20.951Z,12.70
2022-10-25T00:49:15.789Z,12.80
2022-10-25T00:51:49.773Z,12.80
2022-10-25T00:54:18.785Z,12.90
2022-10-25T00:56:47.727Z,12.80
2022-10-25T00:59:19.001Z,12.90
2022-10-25T01:01:46.203Z,12.90
2022-10-25T01:04:15.716Z,12.90
2022-10-25T01:06:47.590Z,12.90
2022-10-25T01:09:19.865Z,13.00
2022-10-25T01:11:47.565Z,12.90
2022-10-25T01:14:18.316Z,12.90
2022-10-25T01:16:54.002Z,13.00
2022-10-25T01:19:48.579Z,13.00
2022-10-25T01:22:29.791Z,13.00
2022-10-25T01:25:05.778Z,13.10
2022-10-25T01:30:31.251Z,13.10
2022-10-25T01:33:28.165Z,13.10
2022-10-25T01:38:59.562Z,13.10
2022-10-25T01:41:44.512Z,13.10
2022-10-25T01:47:04.604Z,13.20
2022-10-25T01:49:52.154Z,13.10
2022-10-25T01:52:21.956Z,13.10
2022-10-25T01:54:49.446Z,13.10
2022-10-25T01:57:47.712Z,13.10
2022-10-25T02:00:20.431Z,13.20
2022-10-25T02:03:09.747Z,13.10
2022-10-25T02:05:36.561Z,13.20
2022-10-25T02:08:29.463Z,13.10
2022-10-25T02:11:16.496Z,13.10
2022-10-25T02:13:43.324Z,13.10
2022-10-25T02:16:15.433Z,13.10
2022-10-25T02:18:48.395Z,13.10
2022-10-25T02:21:17.804Z,13.10
2022-10-25T02:23:45.818Z,13.10
2022-10-25T02:26:14.254Z,13.10
2022-10-25T02:28:42.004Z,13.10
2022-10-25T02:31:13.101Z,13.10
2022-10-25T02:33:40.048Z,13.10
2022-10-25T02:36:10.060Z,13.10
2022-10-25T02:38:37.454Z,13.10
2022-10-25T02:41:05.799Z,13.20
2022-10-25T02:43:33.007Z,13.20
2022-10-25T02:46:00.298Z,13.30
2022-10-25T02:48:27.241Z,13.20
2022-10-25T02:50:54.166Z,13.30
2022-10-25T02:53:20.984Z,13.30
2022-10-25T02:55:47.930Z,13.30
2022-10-25T02:58:14.772Z,13.30
2022-10-25T03:00:42.244Z,13.30
2022-10-25T03:03:10.409Z,13.30
2022-10-25T03:05:37.266Z,13.30
2022-10-25T03:08:04.214Z,13.30
2022-10-25T03:10:31.126Z,13.30
2022-10-25T03:12:58.124Z,13.30
2022-10-25T03:15:25.021Z,13.30
2022-10-25T03:17:52.092Z,13.30
2022-10-25T03:20:18.960Z,13.30
2022-10-25T03:22:45.843Z,13.20
2022-10-25T03:25:12.827Z,13.20
2022-10-25T03:27:39.766Z,13.20
2022-10-25T03:30:07.323Z,13.20
2022-10-25T03:32:34.195Z,13.20
2022-10-25T03:35:01.131Z,13.20
2022-10-25T03:37:27.953Z,13.30
2022-10-25T03:39:54.865Z,13.30
2022-10-25T03:42:21.750Z,13.30
2022-10-25T03:44:48.909Z,13.40
2022-10-25T03:47:15.945Z,13.40
2022-10-25T03:49:43.026Z,13.30
2022-10-25T03:52:10.344Z,13.30
2022-10-25T03:54:37.696Z,13.30
2022-10-25T03:57:05.237Z,13.30
2022-10-25T03:59:32.061Z,13.30
2022-10-25T04:01:59.044Z,13.30
2022-10-25T04:04:25.980Z,13.30
2022-10-25T04:06:52.900Z,13.20
2022-10-25T04:09:19.678Z,13.20
2022-10-25T04:11:46.588Z,13.20
2022-10-25T04:14:14.448Z,13.20
2022-10-25T04:16:41.413Z,13.10
2022-10-25T04:19:08.254Z,13.10
2022-10-25T04:21:35.184Z,13.00
2022-10-25T04:24:04.341Z,13.00
2022-10-25T04:26:31.808Z,13.00
2022-10-25T04:28:58.828Z,13.00
2022-10-25T04:31:25.843Z,13.00
2022-10-25T04:33:54.623Z,13.00
2022-10-25T04:36:22.625Z,12.90
2022-10-25T04:38:53.667Z,12.90
2022-10-25T04:41:21.658Z,12.90
2022-10-25T04:43:50.530Z,12.90
2022-10-25T04:46:17.939Z,12.90
2022-10-25T04:48:44.814Z,12.90
2022-10-25T04:51:12.318Z,12.90
2022-10-25T04:53:39.148Z,12.90
2022-10-25T04:56:09.042Z,12.90
2022-10-25T04:58:36.452Z,12.90
2022-10-25T05:01:10.309Z,12.90
2022-10-25T05:03:37.954Z,12.90
2022-10-25T05:06:08.886Z,12.80
2022-10-25T05:08:36.491Z,12.90
2022-10-25T05:11:03.494Z,12.90
2022-10-25T05:13:33.324Z,12.90
2022-10-25T05:16:00.897Z,12.90
2022-10-25T05:18:28.149Z,12.90
2022-10-25T05:21:00.597Z,12.90
2022-10-25T05:23:28.140Z,12.90
2022-10-25T05:26:19.684Z,12.90
2022-10-25T05:28:48.449Z,13.00
2022-10-25T05:31:20.168Z,13.00
2022-10-25T05:33:49.780Z,13.00
2022-10-25T05:36:16.841Z,13.10
2022-10-25T05:38:43.767Z,13.10
2022-10-25T05:41:12.700Z,13.10
2022-10-25T05:43:40.232Z,13.10
2022-10-25T05:46:13.207Z,13.20
2022-10-25T05:48:44.511Z,13.20
2022-10-25T05:51:33.048Z,13.20
2022-10-25T05:54:02.921Z,13.30
2022-10-25T05:56:31.718Z,13.30
2022-10-25T05:59:01.748Z,13.30
2022-10-25T06:01:28.843Z,13.30
2022-10-25T06:03:56.158Z,13.30
2022-10-25T06:06:23.743Z,13.30
2022-10-25T06:08:55.258Z,13.30
2022-10-25T06:11:22.291Z,13.20
2022-10-25T06:13:49.282Z,13.20
2022-10-25T06:16:18.424Z,13.10
2022-10-25T06:18:45.800Z,13.10
2022-10-25T06:21:21.457Z,13.10
2022-10-25T06:23:48.941Z,13.00
2022-10-25T06:26:25.149Z,13.00
2022-10-25T06:28:56.799Z,13.00
2022-10-25T06:31:23.752Z,13.00
2022-10-25T06:33:51.011Z,13.10
2022-10-25T06:36:23.323Z,13.10
2022-10-25T06:38:51.112Z,13.00
2022-10-25T06:41:20.868Z,13.00
2022-10-25T06:43:48.847Z,13.00
2022-10-25T06:46:18.690Z,13.00
2022-10-25T06:48:45.697Z,13.00
2022-10-25T06:51:12.555Z,13.00
2022-10-25T06:53:39.795Z,13.00
2022-10-25T06:56:10.692Z,13.00
2022-10-25T06:58:41.026Z,13.00
2022-10-25T07:01:13.392Z,13.10
2022-10-25T07:03:40.630Z,13.20
2022-10-25T07:06:10.456Z,13.20
2022-10-25T07:08:39.295Z,13.30
2022-10-25T07:11:07.298Z,13.40
2022-10-25T07:13:34.618Z,13.40
2022-10-25T07:16:03.277Z,13.40
2022-10-25T07:18:31.144Z,13.40
2022-10-25T07:21:11.531Z,13.40
2022-10-25T07:23:42.411Z,13.50
2022-10-25T07:26:19.401Z,13.50
2022-10-25T07:28:47.933Z,13.50
2022-10-25T07:31:18.141Z,13.60
2022-10-25T07:33:45.130Z,13.70
2022-10-25T07:36:12.259Z,14.00
2022-10-25T07:38:39.974Z,14.00
2022-10-25T07:41:07.669Z,14.10
2022-10-25T07:43:35.225Z,14.10
2022-10-25T07:46:02.074Z,14.30
2022-10-25T07:48:29.014Z,14.40
2022-10-25T07:50:55.898Z,14.30
2022-10-25T07:53:22.851Z,14.30
2022-10-25T07:55:54.939Z,14.20
2022-10-25T07:58:21.976Z,14.20
2022-10-25T08:00:49.182Z,14.30
2022-10-25T08:03:17.304Z,14.40
2022-10-25T08:05:46.081Z,14.50
2022-10-25T08:08:13.989Z,14.70
2022-10-25T08:10:44.578Z,14.80
2022-10-25T08:13:11.962Z,15.10
2022-10-25T08:15:40.971Z,15.50
2022-10-25T08:18:09.481Z,15.80
2022-10-25T08:21:01.355Z,16.10
2022-10-25T08:23:25.321Z,16.10
2022-10-25T08:25:52.349Z,16.30
2022-10-25T08:28:20.856Z,16.60
2022-10-25T08:30:47.988Z,16.50
2022-10-25T08:33:14.877Z,16.20
2022-10-25T08:35:41.719Z,16.00
2022-10-25T08:38:08.688Z,15.70
2022-10-25T08:40:57.811Z,15.50
2022-10-25T08:43:49.371Z,15.40
2022-10-25T08:46:34.329Z,15.60
2022-10-25T08:49:09.839Z,15.70
2022-10-25T08:51:40.802Z,15.80
2022-10-25T08:54:22.022Z,16.10
2022-10-25T08:57:10.556Z,16.30
2022-10-25T08:59:42.495Z,16.20
2022-10-25T09:02:33.834Z,16.00
2022-10-25T09:05:01.038Z,15.70
2022-10-25T09:07:31.031Z,15.70
2022-10-25T09:10:03.884Z,15.80
2022-10-25T09:12:59.786Z,16.00
2022-10-25T09:15:36.827Z,16.10
2022-10-25T09:18:15.593Z,16.10
2022-10-25T09:20:58.520Z,16.10
2022-10-25T09:23:29.900Z,16.30
2022-10-25T09:26:04.167Z,16.60
2022-10-25T09:29:12.777Z,16.80
2022-10-25T09:31:45.668Z,17.00
2022-10-25T09:34:14.407Z,16.90
2022-10-25T09:36:46.230Z,16.90
2022-10-25T09:39:35.842Z,16.80
2022-10-25T09:42:04.479Z,16.80
2022-10-25T09:44:43.850Z,17.10
2022-10-25T09:47:30.444Z,17.60
2022-10-25T09:50:03.026Z,18.20
2022-10-25T09:52:51.162Z,18.70
2022-10-25T09:55:39.504Z,19.10
2022-10-25T09:58:10.613Z,18.90
2022-10-25T10:00:40.211Z,18.70
2022-10-25T10:03:12.346Z,18.40
2022-10-25T10:05:42.094Z,18.10
2022-10-25T10:08:09.522Z,18.20
2022-10-25T10:10:37.263Z,18.40
2022-10-25T10:13:28.945Z,18.50
2022-10-25T10:15:59.786Z,18.20
2022-10-25T10:18:30.829Z,18.30
2022-10-25T10:21:06.516Z,18.70
2022-10-25T10:23:43.172Z,19.40
2022-10-25T10:26:44.967Z,19.60
2022-10-25T10:29:17.817Z,19.80
2022-10-25T10:31:51.928Z,19.50
2022-10-25T10:34:24.884Z,19.20
2022-10-25T10:37:22.185Z,19.20
2022-10-25T10:39:49.500Z,19.60
2022-10-25T10:42:21.003Z,20.50
2022-10-25T10:45:15.440Z,21.50
2022-10-25T10:47:50.344Z,22.30
2022-10-25T10:50:23.311Z,22.20
2022-10-25T10:52:55.154Z,21.60
2022-10-25T10:55:29.127Z,21.10
2022-10-25T10:58:01.729Z,21.00
2022-10-25T11:00:30.869Z,20.60
2022-10-25T11:02:58.110Z,20.10
2022-10-25T11:05:26.295Z,20.10
2022-10-25T11:08:00.111Z,19.90
2022-10-25T11:10:29.844Z,19.70
2022-10-25T11:13:28.255Z,19.40
2022-10-25T11:16:32.453Z,19.00
2022-10-25T11:19:23.886Z,18.70
2022-10-25T11:22:11.043Z,18.40
2022-10-25T11:25:02.878Z,18.20
2022-10-25T11:27:47.882Z,18.50
2022-10-25T11:30:21.518Z,18.50
2022-10-25T11:33:08.770Z,18.40
2022-10-25T11:35:54.696Z,18.20
2022-10-25T11:38:27.568Z,18.00
2022-10-25T11:41:04.699Z,17.90
2022-10-25T11:44:16.584Z,17.90
2022-10-25T11:46:57.929Z,18.80
2022-10-25T11:49:47.579Z,20.10
2022-10-25T11:52:32.810Z,20.60
2022-10-25T11:55:38.482Z,20.70
2022-10-25T11:58:20.494Z,20.80
2022-10-25T12:00:56.150Z,21.00
2022-10-25T12:03:33.626Z,21.40
2022-10-25T12:06:36.517Z,22.00
2022-10-25T12:09:27.750Z,22.00
2022-10-25T12:12:06.579Z,22.20
2022-10-25T12:14:47.314Z,22.10
2022-10-25T12:17:24.943Z,21.50
2022-10-25T12:19:55.426Z,22.00
2022-10-25T12:22:27.620Z,22.30
2022-10-25T12:25:15.396Z,22.50
2022-10-25T12:27:46.278Z,23.30
2022-10-25T12:30:18.476Z,24.10
2022-10-25T12:32:57.537Z,24.40
2022-10-25T12:35:34.073Z,24.20
2022-10-25T12:38:08.230Z,24.30
2022-10-25T12:40:41.918Z,23.90
2022-10-25T12:43:21.713Z,22.70
2022-10-25T12:46:28.837Z,21.60
2022-10-25T12:49:21.778Z,20.80
2022-10-25T12:52:03.674Z,21.40
2022-10-25T12:54:57.500Z,22.70
2022-10-25T12:57:36.887Z,22.30
2022-10-25T13:03:12.599Z,21.40
2022-10-25T13:05:43.953Z,22.10
2022-10-25T13:08:12.557Z,22.20
2022-10-25T13:10:46.077Z,21.80
2022-10-25T13:13:18.862Z,21.70
2022-10-25T13:15:51.208Z,21.80
2022-10-25T13:18:46.736Z,22.70
2022-10-25T13:21:37.730Z,23.70
2022-10-25T13:24:04.889Z,24.10
2022-10-25T13:26:33.311Z,24.00
2022-10-25T13:29:03.242Z,23.30
2022-10-25T13:31:30.042Z,23.30
2022-10-25T13:34:12.274Z,24.10
2022-10-25T13:36:53.782Z,24.40
2022-10-25T13:39:32.402Z,24.80
2022-10-25T13:42:09.966Z,25.10
2022-10-25T13:44:51.886Z,25.10
2022-10-25T13:47:49.271Z,24.80
2022-10-25T13:50:19.063Z,25.30
2022-10-25T13:53:02.503Z,25.20
2022-10-25T13:55:36.751Z,24.70
2022-10-25T13:58:32.070Z,23.40
2022-10-25T14:01:17.552Z,22.40
2022-10-25T14:03:51.620Z,21.40
2022-10-25T14:06:30.251Z,20.50
2022-10-25T14:09:08.692Z,20.10
2022-10-25T14:11:51.693Z,19.80
2022-10-25T14:14:28.813Z,19.50
2022-10-25T14:17:19.057Z,19.30
2022-10-25T14:19:50.303Z,19.10
2022-10-25T14:22:33.072Z,18.90
2022-10-25T14:25:28.911Z,18.60
2022-10-25T14:28:36.734Z,18.50
2022-10-25T14:31:05.717Z,18.40
2022-10-25T14:33:36.618Z,18.40
2022-10-25T14:36:06.509Z,18.40
2022-10-25T14:38:51.467Z,18.30
2022-10-25T14:41:30.135Z,18.30
2022-10-25T14:43:57.496Z,18.20
2022-10-25T14:46:30.172Z,18.20
2022-10-25T14:48:58.893Z,18.10
2022-10-25T14:51:31.670Z,18.00
2022-10-25T14:54:20.127Z,17.90
2022-10-25T14:56:51.051Z,17.80
2022-10-25T14:59:28.552Z,17.70
2022-10-25T15:01:59.373Z,17.70
2022-10-25T15:04:38.800Z,17.70
2022-10-25T15:07:07.511Z,17.70
2022-10-25T15:09:42.846Z,17.60
2022-10-25T15:12:13.194Z,17.50
2022-10-25T15:14:40.397Z,17.50
2022-10-25T15:17:26.920Z,17.40
2022-10-25T15:20:06.794Z,17.30
2022-10-25T15:22:45.912Z,17.10
2022-10-25T15:25:41.201Z,17.10
2022-10-25T15:28:15.826Z,17.00
2022-10-25T15:30:42.680Z,17.00
2022-10-25T15:33:13.266Z,16.90
2022-10-25T15:35:51.038Z,16.90
2022-10-25T15:38:18.916Z,16.80
2022-10-25T15:40:47.649Z,16.80
2022-10-25T15:43:15.266Z,16.70
2022-10-25T15:45:42.282Z,16.70
2022-10-25T15:48:17.766Z,16.70
2022-10-25T15:50:54.127Z,16.70
2022-10-25T15:53:22.136Z,16.70
2022-10-25T15:55:50.476Z,16.60
2022-10-25T15:58:17.609Z,16.60
2022-10-25T16:00:45.714Z,16.50
2022-10-25T16:03:23.992Z,16.40
2022-10-25T16:05:51.999Z,16.40
2022-10-25T16:08:19.310Z,16.30
2022-10-25T16:10:46.465Z,16.20
2022-10-25T16:13:19.480Z,16.20
2022-10-25T16:15:46.455Z,16.10
2022-10-25T16:18:13.697Z,16.10
2022-10-25T16:20:40.684Z,16.00
2022-10-25T16:23:07.563Z,15.90
2022-10-25T16:25:34.714Z,15.80
2022-10-25T16:28:01.972Z,15.80
2022-10-25T16:30:34.038Z,15.70
2022-10-25T16:33:01.345Z,15.70
2022-10-25T16:35:28.327Z,15.70
2022-10-25T16:37:55.351Z,15.70
2022-10-25T16:40:22.636Z,15.60
2022-10-25T16:42:49.932Z,15.60
2022-10-25T16:45:26.010Z,15.50
2022-10-25T16:47:55.930Z,15.50
2022-10-25T16:50:28.317Z,15.40
2022-10-25T16:53:00.815Z,15.40
2022-10-25T16:55:30.384Z,15.40
2022-10-25T16:57:58.534Z,15.30
2022-10-25T17:00:27.082Z,15.30
2022-10-25T17:02:54.030Z,15.20
2022-10-25T17:05:28.641Z,15.20
2022-10-25T17:07:56.315Z,15.20
2022-10-25T17:10:23.319Z,15.10
2022-10-25T17:12:53.430Z,15.10
2022-10-25T17:15:21.452Z,15.10
2022-10-25T17:17:51.233Z,15.10
2022-10-25T17:20:18.550Z,15.10
2022-10-25T17:22:45.890Z,15.10
2022-10-25T17:25:12.883Z,15.10
2022-10-25T17:27:41.841Z,15.10
2022-10-25T17:30:10.565Z,15.10
2022-10-25T17:32:38.444Z,15.10
2022-10-25T17:35:06.034Z,15.10
2022-10-25T17:37:33.649Z,15.00
2022-10-25T17:40:01.063Z,15.00
2022-10-25T17:42:31.206Z,15.00
2022-10-25T17:44:58.120Z,15.00
2022-10-25T17:47:24.959Z,15.00
2022-10-25T17:49:53.350Z,15.00
2022-10-25T17:52:20.599Z,15.00
2022-10-25T17:54:47.465Z,15.00
2022-10-25T17:57:14.377Z,15.00
2022-10-25T17:59:41.328Z,15.00
2022-10-25T18:02:11.063Z,15.00
2022-10-25T18:05:00.976Z,15.00
2022-10-25T18:07:25.309Z,15.00
2022-10-25T18:09:52.448Z,15.00
2022-10-25T18:12:19.465Z,14.90
2022-10-25T18:14:46.378Z,14.90
2022-10-25T18:17:13.280Z,14.90
2022-10-25T18:19:40.171Z,14.80
2022-10-25T18:22:07.158Z,14.80
2022-10-25T18:24:34.438Z,14.70
2022-10-25T18:27:03.715Z,14.70
2022-10-25T18:29:32.737Z,14.60
2022-10-25T18:31:59.651Z,14.60
2022-10-25T18:34:26.748Z,14.60
2022-10-25T18:36:53.636Z,14.50
2022-10-25T18:39:20.488Z,14.50
2022-10-25T18:41:48.983Z,14.50
2022-10-25T18:44:16.230Z,14.40
2022-10-25T18:46:43.392Z,14.50
2022-10-25T18:49:14.220Z,14.50
2022-10-25T18:51:41.375Z,14.50
2022-10-25T18:54:10.341Z,14.50
2022-10-25T18:56:37.307Z,14.50
2022-10-25T18:59:04.467Z,14.50
2022-10-25T19:01:34.439Z,14.40
2022-10-25T19:04:03.746Z,14.40
2022-10-25T19:06:31.829Z,14.40
2022-10-25T19:09:02.983Z,14.30
2022-10-25T19:11:30.126Z,14.30
2022-10-25T19:13:57.270Z,14.20
2022-10-25T19:16:24.485Z,14.20
2022-10-25T19:18:53.369Z,14.20
2022-10-25T19:21:20.442Z,14.20
2022-10-25T19:23:47.763Z,14.10
2022-10-25T19:26:18.349Z,14.10
2022-10-25T19:28:45.839Z,14.00
2022-10-25T19:31:17.367Z,14.00
2022-10-25T19:33:49.242Z,14.00
2022-10-25T19:36:17.599Z,14.00
2022-10-25T19:38:50.768Z,14.00
2022-10-25T19:41:22.807Z,14.00
2022-10-25T19:43:50.242Z,14.00
2022-10-25T19:46:18.317Z,13.90
2022-10-25T19:48:45.709Z,13.90
2022-10-25T19:51:18.909Z,13.90
2022-10-25T19:53:46.566Z,13.80
2022-10-25T19:56:19.169Z,13.80
2022-10-25T19:58:46.618Z,13.80
2022-10-25T20:01:21.308Z,13.80
2022-10-25T20:03:51.014Z,13.70
2022-10-25T20:06:24.276Z,13.60
2022-10-25T20:08:52.384Z,13.60
2022-10-25T20:11:19.934Z,13.60
2022-10-25T20:13:47.409Z,13.60
2022-10-25T20:16:14.957Z,13.60
2022-10-25T20:18:42.611Z,13.60
2022-10-25T20:21:15.290Z,13.60
2022-10-25T20:23:49.057Z,13.60
2022-10-25T20:26:24.340Z,13.60
2022-10-25T20:28:55.879Z,13.50
2022-10-25T20:31:23.701Z,13.50
2022-10-25T20:33:51.009Z,13.50
2022-10-25T20:36:18.177Z,13.50
2022-10-25T20:38:46.455Z,13.40
2022-10-25T20:41:19.010Z,13.40
2022-10-25T20:43:48.412Z,13.40
2022-10-25T20:46:16.237Z,13.40
2022-10-25T20:48:43.545Z,13.40
2022-10-25T20:51:11.501Z,13.40
2022-10-25T20:53:43.274Z,13.40
2022-10-25T20:56:10.835Z,13.40
2022-10-25T20:58:37.778Z,13.40
2022-10-25T21:01:05.180Z,13.30
2022-10-25T21:03:32.685Z,13.30
2022-10-25T21:06:05.701Z,13.30
2022-10-25T21:08:33.745Z,13.30
2022-10-25T21:11:02.925Z,13.20
2022-10-25T21:13:31.720Z,13.20
2022-10-25T21:15:58.946Z,13.20
2022-10-25T21:18:29.282Z,13.20
2022-10-25T21:21:01.363Z,13.20
2022-10-25T21:23:28.416Z,13.20
2022-10-25T21:26:03.957Z,13.20
2022-10-25T21:28:39.153Z,13.10
2022-10-25T21:31:09.047Z,13.10
2022-10-25T21:33:36.169Z,13.10
2022-10-25T21:36:11.435Z,13.10
2022-10-25T21:38:38.860Z,13.10
2022-10-25T21:41:17.237Z,13.00
2022-10-25T21:43:46.068Z,13.00
2022-10-25T21:46:14.459Z,13.00
2022-10-25T21:48:42.029Z,12.90
2022-10-25T21:51:09.059Z,12.90
2022-10-25T21:53:36.165Z,12.90
2022-10-25T21:56:10.329Z,12.80
2022-10-25T21:58:37.880Z,12.80
2022-10-25T22:01:18.865Z,12.80
2022-10-25T22:03:45.902Z,12.80
2022-10-25T22:06:15.456Z,12.70
2022-10-25T22:08:42.539Z,12.70
2022-10-25T22:11:20.272Z,12.70
2022-10-25T22:13:48.154Z,12.70
2022-10-25T22:16:18.247Z,12.60
2022-10-25T22:19:00.173Z,12.60
2022-10-25T22:21:30.355Z,12.60
2022-10-25T22:23:57.319Z,12.50
2022-10-25T22:26:24.319Z,12.50
2022-10-25T22:28:52.652Z,12.50
2022-10-25T22:31:20.951Z,12.50
2022-10-25T22:33:52.025Z,12.40
2022-10-25T22:36:20.221Z,12.50
2022-10-25T22:38:47.885Z,12.40
2022-10-25T22:41:20.188Z,12.40
2022-10-25T22:43:48.131Z,12.40
2022-10-25T22:46:17.967Z,12.30
2022-10-25T22:48:45.290Z,12.30
2022-10-25T22:51:13.006Z,12.30
2022-10-25T22:53:41.152Z,12.30
2022-10-25T22:56:19.471Z,12.30
2022-10-25T22:58:51.707Z,12.30
2022-10-25T23:01:25.385Z,12.30
2022-10-25T23:03:54.793Z,12.20
2022-10-25T23:06:26.833Z,12.20
2022-10-25T23:08:55.690Z,12.20
2022-10-25T23:11:24.897Z,12.20
2022-10-25T23:13:52.039Z,12.10
2022-10-25T23:16:19.503Z,12.20
2022-10-25T23:18:46.831Z,12.10
2022-10-25T23:21:19.824Z,12.10
2022-10-25T23:23:47.623Z,12.10
2022-10-25T23:26:21.711Z,12.10
2022-10-25T23:28:48.891Z,12.10
2022-10-25T23:31:16.718Z,12.00
2022-10-25T23:33:44.197Z,12.00
2022-10-25T23:36:16.304Z,12.00
2022-10-25T23:38:44.145Z,12.00
2022-10-25T23:41:11.464Z,12.00
2022-10-25T23:43:38.829Z,12.00
2022-10-25T23:46:06.505Z,11.90
2022-10-25T23:48:34.377Z,11.90
2022-10-25T23:51:04.118Z,11.90
2022-10-25T23:53:31.317Z,11.90
2022-10-25T23:55:58.872Z,11.90
2022-10-25T23:58:25.979Z,11.90
